sensor_id;sensor_type;location;lat;lon;timestamp;pressure;altitude;pressure_sealevel;temperature;humidity
33414;BME280;60055;41.884;12.534;2023-07-16T00:02:01;100985.75;;;29.23;55.83
33414;BME280;60055;41.884;12.534;2023-07-16T00:04:27;100996.28;;;29.18;56.59
33414;BME280;60055;41.884;12.534;2023-07-16T00:06:52;100992.88;;;29.24;56.35
33414;BME280;60055;41.884;12.534;2023-07-16T00:09:17;100988.63;;;29.22;56.84
33414;BME280;60055;41.884;12.534;2023-07-16T00:11:43;100986.94;;;29.21;56.67
33414;BME280;60055;41.884;12.534;2023-07-16T00:14:10;100998.31;;;29.08;57.39
33414;BME280;60055;41.884;12.534;2023-07-16T00:16:37;100997.13;;;29.03;57.71
33414;BME280;60055;41.884;12.534;2023-07-16T00:19:02;100993.56;;;29.18;57.00
33414;BME280;60055;41.884;12.534;2023-07-16T00:21:28;100995.25;;;29.11;57.44
33414;BME280;60055;41.884;12.534;2023-07-16T00:23:53;100987.25;;;29.02;57.56
33414;BME280;60055;41.884;12.534;2023-07-16T00:26:19;100986.41;;;28.93;57.36
33414;BME280;60055;41.884;12.534;2023-07-16T00:28:44;100987.41;;;28.92;57.49
33414;BME280;60055;41.884;12.534;2023-07-16T00:31:10;100986.03;;;28.88;57.48
33414;BME280;60055;41.884;12.534;2023-07-16T00:33:35;100988.44;;;28.91;57.15
33414;BME280;60055;41.884;12.534;2023-07-16T00:36:01;100976.88;;;28.89;57.08
33414;BME280;60055;41.884;12.534;2023-07-16T00:38:26;100984.19;;;29.05;56.63
33414;BME280;60055;41.884;12.534;2023-07-16T00:40:52;100977.88;;;28.88;57.41
33414;BME280;60055;41.884;12.534;2023-07-16T00:43:17;100985.22;;;29.04;57.08
33414;BME280;60055;41.884;12.534;2023-07-16T00:45:45;100983.69;;;28.93;57.60
33414;BME280;60055;41.884;12.534;2023-07-16T00:48:11;100980.09;;;29.01;56.80
33414;BME280;60055;41.884;12.534;2023-07-16T00:50:38;100983.53;;;29.03;56.95
33414;BME280;60055;41.884;12.534;2023-07-16T00:53:08;100976.19;;;28.79;57.28
33414;BME280;60055;41.884;12.534;2023-07-16T00:55:36;100974.22;;;28.63;57.78
33414;BME280;60055;41.884;12.534;2023-07-16T00:58:06;100977.28;;;28.60;57.86
33414;BME280;60055;41.884;12.534;2023-07-16T01:00:33;100978.47;;;28.58;57.36
33414;BME280;60055;41.884;12.534;2023-07-16T01:03:01;100976.78;;;28.15;58.49
33414;BME280;60055;41.884;12.534;2023-07-16T01:05:31;100975.72;;;28.16;58.88
33414;BME280;60055;41.884;12.534;2023-07-16T01:08:02;100976.00;;;28.05;58.78
33414;BME280;60055;41.884;12.534;2023-07-16T01:10:29;100981.22;;;28.24;58.28
33414;BME280;60055;41.884;12.534;2023-07-16T01:12:55;100977.28;;;28.18;58.19
33414;BME280;60055;41.884;12.534;2023-07-16T01:15:22;100974.56;;;28.18;57.85
33414;BME280;60055;41.884;12.534;2023-07-16T01:17:47;100973.94;;;28.32;57.61
33414;BME280;60055;41.884;12.534;2023-07-16T01:20:13;100982.25;;;28.31;56.77
33414;BME280;60055;41.884;12.534;2023-07-16T01:29:31;100967.94;;;28.63;55.55
33414;BME280;60055;41.884;12.534;2023-07-16T01:32:00;100964.50;;;28.53;55.95
33414;BME280;60055;41.884;12.534;2023-07-16T01:34:28;100966.41;;;28.52;56.71
33414;BME280;60055;41.884;12.534;2023-07-16T01:36:55;100964.16;;;28.48;57.20
33414;BME280;60055;41.884;12.534;2023-07-16T01:39:21;100957.44;;;28.26;57.96
33414;BME280;60055;41.884;12.534;2023-07-16T01:41:46;100959.34;;;28.33;57.87
33414;BME280;60055;41.884;12.534;2023-07-16T01:44:12;100957.34;;;28.43;57.62
33414;BME280;60055;41.884;12.534;2023-07-16T01:46:37;100948.88;;;28.47;57.57
33414;BME280;60055;41.884;12.534;2023-07-16T01:49:03;100948.34;;;28.35;58.00
33414;BME280;60055;41.884;12.534;2023-07-16T01:51:28;100950.69;;;28.30;57.85
33414;BME280;60055;41.884;12.534;2023-07-16T01:53:53;100944.09;;;28.40;57.36
33414;BME280;60055;41.884;12.534;2023-07-16T01:56:19;100945.09;;;28.39;57.45
33414;BME280;60055;41.884;12.534;2023-07-16T01:58:45;100946.81;;;28.40;57.21
33414;BME280;60055;41.884;12.534;2023-07-16T02:01:10;100950.00;;;28.28;57.49
33414;BME280;60055;41.884;12.534;2023-07-16T02:03:36;100947.41;;;28.18;57.50
33414;BME280;60055;41.884;12.534;2023-07-16T02:06:01;100949.81;;;28.29;57.71
33414;BME280;60055;41.884;12.534;2023-07-16T02:08:26;100936.38;;;28.20;57.15
33414;BME280;60055;41.884;12.534;2023-07-16T02:10:52;100936.38;;;28.12;57.44
33414;BME280;60055;41.884;12.534;2023-07-16T02:13:18;100931.13;;;28.18;57.95
33414;BME280;60055;41.884;12.534;2023-07-16T02:15:43;100925.22;;;27.97;58.01
33414;BME280;60055;41.884;12.534;2023-07-16T02:18:09;100919.03;;;28.13;57.82
33414;BME280;60055;41.884;12.534;2023-07-16T02:20:35;100921.28;;;28.17;57.91
33414;BME280;60055;41.884;12.534;2023-07-16T02:23:00;100927.50;;;28.10;58.00
33414;BME280;60055;41.884;12.534;2023-07-16T02:25:25;100929.31;;;27.67;59.57
33414;BME280;60055;41.884;12.534;2023-07-16T02:27:51;100930.84;;;27.70;59.57
33414;BME280;60055;41.884;12.534;2023-07-16T02:30:17;100940.50;;;27.72;58.89
33414;BME280;60055;41.884;12.534;2023-07-16T02:32:43;100939.56;;;27.81;58.73
33414;BME280;60055;41.884;12.534;2023-07-16T02:35:08;100947.06;;;27.87;58.30
33414;BME280;60055;41.884;12.534;2023-07-16T02:37:34;100939.56;;;27.56;59.27
33414;BME280;60055;41.884;12.534;2023-07-16T02:39:59;100940.81;;;27.61;59.21
33414;BME280;60055;41.884;12.534;2023-07-16T02:42:25;100931.91;;;27.77;58.62
33414;BME280;60055;41.884;12.534;2023-07-16T02:44:51;100928.47;;;27.75;58.36
33414;BME280;60055;41.884;12.534;2023-07-16T02:47:16;100924.53;;;27.61;58.70
33414;BME280;60055;41.884;12.534;2023-07-16T02:49:42;100924.63;;;27.77;58.87
33414;BME280;60055;41.884;12.534;2023-07-16T02:52:07;100920.66;;;27.72;58.59
33414;BME280;60055;41.884;12.534;2023-07-16T02:54:35;100925.75;;;27.75;58.37
33414;BME280;60055;41.884;12.534;2023-07-16T02:57:01;100914.28;;;27.81;58.18
33414;BME280;60055;41.884;12.534;2023-07-16T02:59:27;100924.63;;;27.85;57.94
33414;BME280;60055;41.884;12.534;2023-07-16T03:01:52;100927.81;;;27.73;58.78
33414;BME280;60055;41.884;12.534;2023-07-16T03:04:19;100926.25;;;27.70;58.52
33414;BME280;60055;41.884;12.534;2023-07-16T03:06:44;100924.06;;;27.48;58.98
33414;BME280;60055;41.884;12.534;2023-07-16T03:09:10;100923.81;;;27.16;59.86
33414;BME280;60055;41.884;12.534;2023-07-16T03:11:35;100926.66;;;27.14;60.12
33414;BME280;60055;41.884;12.534;2023-07-16T03:14:01;100935.34;;;27.18;59.48
33414;BME280;60055;41.884;12.534;2023-07-16T03:16:26;100929.69;;;27.11;60.09
33414;BME280;60055;41.884;12.534;2023-07-16T03:18:52;100932.25;;;27.13;59.59
33414;BME280;60055;41.884;12.534;2023-07-16T03:21:18;100938.69;;;26.94;60.54
33414;BME280;60055;41.884;12.534;2023-07-16T03:23:43;100944.59;;;26.89;59.83
33414;BME280;60055;41.884;12.534;2023-07-16T03:26:09;100953.41;;;26.91;60.20
33414;BME280;60055;41.884;12.534;2023-07-16T03:28:34;100947.75;;;27.03;59.30
33414;BME280;60055;41.884;12.534;2023-07-16T03:30:59;100956.81;;;27.11;59.00
33414;BME280;60055;41.884;12.534;2023-07-16T03:33:25;100961.00;;;27.06;59.32
33414;BME280;60055;41.884;12.534;2023-07-16T03:35:51;100958.91;;;27.00;59.38
33414;BME280;60055;41.884;12.534;2023-07-16T03:38:16;100964.25;;;27.27;58.61
33414;BME280;60055;41.884;12.534;2023-07-16T03:40:46;100957.09;;;27.26;58.65
33414;BME280;60055;41.884;12.534;2023-07-16T03:43:11;100955.56;;;27.23;59.02
33414;BME280;60055;41.884;12.534;2023-07-16T03:45:37;100957.44;;;27.23;58.41
33414;BME280;60055;41.884;12.534;2023-07-16T03:48:02;100949.28;;;27.23;58.37
33414;BME280;60055;41.884;12.534;2023-07-16T03:50:28;100960.34;;;27.29;58.61
33414;BME280;60055;41.884;12.534;2023-07-16T03:52:53;100957.66;;;27.29;58.07
33414;BME280;60055;41.884;12.534;2023-07-16T03:55:19;100960.22;;;27.13;58.25
33414;BME280;60055;41.884;12.534;2023-07-16T03:57:45;100961.75;;;27.16;58.22
33414;BME280;60055;41.884;12.534;2023-07-16T04:00:10;100959.41;;;27.21;58.14
33414;BME280;60055;41.884;12.534;2023-07-16T04:02:36;100972.91;;;27.30;58.03
33414;BME280;60055;41.884;12.534;2023-07-16T04:05:03;100978.25;;;27.22;58.17
33414;BME280;60055;41.884;12.534;2023-07-16T04:07:28;100975.53;;;27.05;58.21
33414;BME280;60055;41.884;12.534;2023-07-16T04:09:54;100973.78;;;26.68;59.17
33414;BME280;60055;41.884;12.534;2023-07-16T04:12:19;100987.44;;;26.76;59.24
33414;BME280;60055;41.884;12.534;2023-07-16T04:14:46;100986.69;;;26.84;58.88
33414;BME280;60055;41.884;12.534;2023-07-16T04:17:11;100993.44;;;27.15;57.60
33414;BME280;60055;41.884;12.534;2023-07-16T04:19:37;100985.53;;;27.04;57.97
33414;BME280;60055;41.884;12.534;2023-07-16T04:22:03;100986.16;;;27.16;57.78
33414;BME280;60055;41.884;12.534;2023-07-16T04:24:28;100996.94;;;27.25;57.55
33414;BME280;60055;41.884;12.534;2023-07-16T04:26:54;100991.44;;;27.17;57.93
33414;BME280;60055;41.884;12.534;2023-07-16T04:29:20;100987.47;;;27.29;57.58
33414;BME280;60055;41.884;12.534;2023-07-16T04:31:45;100986.84;;;27.35;57.28
33414;BME280;60055;41.884;12.534;2023-07-16T04:34:11;100997.53;;;27.55;56.80
33414;BME280;60055;41.884;12.534;2023-07-16T04:36:36;100996.22;;;27.59;56.24
33414;BME280;60055;41.884;12.534;2023-07-16T04:39:02;100988.81;;;27.69;55.99
33414;BME280;60055;41.884;12.534;2023-07-16T04:41:27;100990.09;;;27.57;55.84
33414;BME280;60055;41.884;12.534;2023-07-16T04:43:53;100986.84;;;27.53;54.99
33414;BME280;60055;41.884;12.534;2023-07-16T04:46:18;100979.41;;;27.55;55.44
33414;BME280;60055;41.884;12.534;2023-07-16T04:48:44;100977.63;;;27.64;55.17
33414;BME280;60055;41.884;12.534;2023-07-16T04:51:09;100981.88;;;27.49;55.43
33414;BME280;60055;41.884;12.534;2023-07-16T04:53:34;100981.97;;;27.57;55.29
33414;BME280;60055;41.884;12.534;2023-07-16T04:56:00;100984.16;;;27.53;55.27
33414;BME280;60055;41.884;12.534;2023-07-16T04:58:25;100982.72;;;27.67;54.00
33414;BME280;60055;41.884;12.534;2023-07-16T05:00:51;100985.44;;;27.67;53.78
33414;BME280;60055;41.884;12.534;2023-07-16T05:03:16;100980.00;;;27.67;54.01
33414;BME280;60055;41.884;12.534;2023-07-16T05:05:42;100974.16;;;27.79;52.65
33414;BME280;60055;41.884;12.534;2023-07-16T05:08:07;100985.81;;;27.98;52.05
33414;BME280;60055;41.884;12.534;2023-07-16T05:10:33;100983.34;;;28.12;51.85
33414;BME280;60055;41.884;12.534;2023-07-16T05:12:59;101002.41;;;28.20;51.71
33414;BME280;60055;41.884;12.534;2023-07-16T05:15:24;101001.63;;;28.36;51.04
33414;BME280;60055;41.884;12.534;2023-07-16T05:17:50;100997.00;;;28.62;50.50
33414;BME280;60055;41.884;12.534;2023-07-16T05:20:15;101002.88;;;28.91;50.08
33414;BME280;60055;41.884;12.534;2023-07-16T05:22:41;101009.72;;;29.12;49.52
33414;BME280;60055;41.884;12.534;2023-07-16T05:25:07;101013.97;;;29.22;49.26
33414;BME280;60055;41.884;12.534;2023-07-16T05:27:32;101002.44;;;29.53;48.44
33414;BME280;60055;41.884;12.534;2023-07-16T05:29:58;100997.31;;;29.82;47.83
33414;BME280;60055;41.884;12.534;2023-07-16T05:32:23;100991.03;;;29.98;47.51
33414;BME280;60055;41.884;12.534;2023-07-16T05:34:49;100997.22;;;30.22;47.35
33414;BME280;60055;41.884;12.534;2023-07-16T05:37:14;100997.66;;;29.95;47.48
33414;BME280;60055;41.884;12.534;2023-07-16T05:39:40;101008.25;;;30.37;46.73
33414;BME280;60055;41.884;12.534;2023-07-16T05:42:05;101011.50;;;30.40;47.03
33414;BME280;60055;41.884;12.534;2023-07-16T05:44:31;101007.38;;;29.98;47.60
33414;BME280;60055;41.884;12.534;2023-07-16T05:46:57;101010.94;;;29.66;48.06
33414;BME280;60055;41.884;12.534;2023-07-16T05:49:23;101011.28;;;29.87;47.96
33414;BME280;60055;41.884;12.534;2023-07-16T05:51:49;101010.94;;;29.41;48.45
33414;BME280;60055;41.884;12.534;2023-07-16T05:54:15;101019.09;;;29.82;48.38
33414;BME280;60055;41.884;12.534;2023-07-16T05:56:40;101011.25;;;29.71;48.20
33414;BME280;60055;41.884;12.534;2023-07-16T05:59:06;101019.72;;;30.24;47.46
33414;BME280;60055;41.884;12.534;2023-07-16T06:01:31;101026.44;;;30.53;45.99
33414;BME280;60055;41.884;12.534;2023-07-16T06:04:06;101030.44;;;30.73;45.75
33414;BME280;60055;41.884;12.534;2023-07-16T06:06:47;101037.13;;;30.93;46.06
33414;BME280;60055;41.884;12.534;2023-07-16T06:09:45;101029.41;;;31.35;44.71
33414;BME280;60055;41.884;12.534;2023-07-16T06:12:31;101042.56;;;31.09;45.09
33414;BME280;60055;41.884;12.534;2023-07-16T06:15:08;101040.47;;;31.11;44.99
33414;BME280;60055;41.884;12.534;2023-07-16T06:17:45;101053.22;;;30.88;45.96
33414;BME280;60055;41.884;12.534;2023-07-16T06:20:11;101046.06;;;31.18;45.46
33414;BME280;60055;41.884;12.534;2023-07-16T06:22:45;101051.22;;;31.81;44.03
33414;BME280;60055;41.884;12.534;2023-07-16T06:25:16;101049.81;;;32.22;43.31
33414;BME280;60055;41.884;12.534;2023-07-16T06:27:44;101054.34;;;32.30;42.54
33414;BME280;60055;41.884;12.534;2023-07-16T06:30:10;101051.22;;;32.48;42.32
33414;BME280;60055;41.884;12.534;2023-07-16T06:32:35;101047.16;;;32.87;41.58
33414;BME280;60055;41.884;12.534;2023-07-16T06:35:01;101048.94;;;32.95;42.17
33414;BME280;60055;41.884;12.534;2023-07-16T06:37:27;101045.09;;;32.75;42.81
33414;BME280;60055;41.884;12.534;2023-07-16T06:39:52;101047.16;;;33.23;41.13
33414;BME280;60055;41.884;12.534;2023-07-16T06:42:18;101047.34;;;33.43;41.10
33414;BME280;60055;41.884;12.534;2023-07-16T06:44:44;101038.75;;;33.67;40.41
33414;BME280;60055;41.884;12.534;2023-07-16T06:47:24;101039.88;;;32.95;42.12
33414;BME280;60055;41.884;12.534;2023-07-16T06:49:50;101047.69;;;32.98;41.47
33414;BME280;60055;41.884;12.534;2023-07-16T06:52:25;101036.66;;;33.48;40.90
33414;BME280;60055;41.884;12.534;2023-07-16T06:54:56;101039.75;;;33.87;40.22
33414;BME280;60055;41.884;12.534;2023-07-16T06:57:24;101047.94;;;34.09;39.74
33414;BME280;60055;41.884;12.534;2023-07-16T06:59:50;101041.47;;;33.88;40.30
33414;BME280;60055;41.884;12.534;2023-07-16T07:02:16;101039.88;;;34.01;40.37
33414;BME280;60055;41.884;12.534;2023-07-16T07:04:42;101043.97;;;33.41;41.33
33414;BME280;60055;41.884;12.534;2023-07-16T07:07:08;101046.25;;;33.37;41.31
33414;BME280;60055;41.884;12.534;2023-07-16T07:09:33;101032.03;;;33.70;41.26
33414;BME280;60055;41.884;12.534;2023-07-16T07:11:59;101026.41;;;33.78;41.01
33414;BME280;60055;41.884;12.534;2023-07-16T07:14:25;101035.53;;;34.41;40.15
33414;BME280;60055;41.884;12.534;2023-07-16T07:16:50;101031.59;;;34.56;39.63
33414;BME280;60055;41.884;12.534;2023-07-16T07:19:15;101031.13;;;34.87;38.71
33414;BME280;60055;41.884;12.534;2023-07-16T07:21:41;101027.91;;;34.77;39.33
33414;BME280;60055;41.884;12.534;2023-07-16T07:24:06;101027.16;;;34.21;40.04
33414;BME280;60055;41.884;12.534;2023-07-16T07:26:32;101024.75;;;34.80;39.40
33414;BME280;60055;41.884;12.534;2023-07-16T07:28:57;101030.38;;;35.19;38.48
33414;BME280;60055;41.884;12.534;2023-07-16T07:31:23;101025.84;;;34.51;40.09
33414;BME280;60055;41.884;12.534;2023-07-16T07:33:48;101034.66;;;34.74;39.45
33414;BME280;60055;41.884;12.534;2023-07-16T07:36:13;101033.38;;;35.37;38.15
33414;BME280;60055;41.884;12.534;2023-07-16T07:38:39;101037.69;;;35.06;39.07
33414;BME280;60055;41.884;12.534;2023-07-16T07:41:05;101021.97;;;35.47;37.91
33414;BME280;60055;41.884;12.534;2023-07-16T07:43:31;101026.22;;;35.63;37.25
33414;BME280;60055;41.884;12.534;2023-07-16T07:45:56;101032.75;;;35.42;38.03
33414;BME280;60055;41.884;12.534;2023-07-16T07:48:21;101030.84;;;35.49;37.86
33414;BME280;60055;41.884;12.534;2023-07-16T07:50:47;101030.91;;;34.88;38.07
33414;BME280;60055;41.884;12.534;2023-07-16T07:53:12;101029.75;;;35.11;38.45
33414;BME280;60055;41.884;12.534;2023-07-16T07:55:40;101025.34;;;35.49;37.82
33414;BME280;60055;41.884;12.534;2023-07-16T07:58:06;101028.50;;;35.53;37.40
33414;BME280;60055;41.884;12.534;2023-07-16T08:00:31;101022.81;;;35.54;37.15
33414;BME280;60055;41.884;12.534;2023-07-16T08:02:56;101027.38;;;35.01;38.60
33414;BME280;60055;41.884;12.534;2023-07-16T08:05:22;101041.47;;;35.72;37.21
33414;BME280;60055;41.884;12.534;2023-07-16T08:07:47;101030.44;;;35.59;37.45
33414;BME280;60055;41.884;12.534;2023-07-16T08:10:13;101036.13;;;36.03;36.64
33414;BME280;60055;41.884;12.534;2023-07-16T08:12:38;101038.38;;;36.65;35.25
33414;BME280;60055;41.884;12.534;2023-07-16T08:15:04;101036.28;;;37.05;34.83
33414;BME280;60055;41.884;12.534;2023-07-16T08:17:31;101033.47;;;37.18;34.26
33414;BME280;60055;41.884;12.534;2023-07-16T08:19:56;101034.28;;;36.74;35.09
33414;BME280;60055;41.884;12.534;2023-07-16T08:22:22;101037.59;;;36.38;35.61
33414;BME280;60055;41.884;12.534;2023-07-16T08:24:49;101034.63;;;36.47;35.79
33414;BME280;60055;41.884;12.534;2023-07-16T08:27:16;101035.53;;;35.95;36.35
33414;BME280;60055;41.884;12.534;2023-07-16T08:29:41;101038.19;;;36.41;35.80
33414;BME280;60055;41.884;12.534;2023-07-16T08:32:07;101044.28;;;36.69;34.99
33414;BME280;60055;41.884;12.534;2023-07-16T08:34:32;101039.03;;;37.05;34.16
33414;BME280;60055;41.884;12.534;2023-07-16T08:36:58;101039.72;;;36.36;35.33
33414;BME280;60055;41.884;12.534;2023-07-16T08:39:23;101038.69;;;35.59;37.12
33414;BME280;60055;41.884;12.534;2023-07-16T08:41:49;101042.25;;;35.53;36.83
33414;BME280;60055;41.884;12.534;2023-07-16T08:44:14;101039.56;;;35.92;36.15
33414;BME280;60055;41.884;12.534;2023-07-16T08:46:40;101044.41;;;35.70;36.59
33414;BME280;60055;41.884;12.534;2023-07-16T08:49:07;101041.22;;;35.93;36.63
33414;BME280;60055;41.884;12.534;2023-07-16T08:51:34;101050.09;;;36.92;33.52
33414;BME280;60055;41.884;12.534;2023-07-16T08:54:00;101051.34;;;37.41;32.32
33414;BME280;60055;41.884;12.534;2023-07-16T08:56:26;101056.72;;;36.78;33.48
33414;BME280;60055;41.884;12.534;2023-07-16T08:58:54;101051.66;;;37.57;31.93
33414;BME280;60055;41.884;12.534;2023-07-16T09:01:21;101057.97;;;37.89;31.07
33414;BME280;60055;41.884;12.534;2023-07-16T09:03:47;101057.56;;;37.85;31.87
33414;BME280;60055;41.884;12.534;2023-07-16T09:06:12;101049.75;;;37.82;31.73
33414;BME280;60055;41.884;12.534;2023-07-16T09:08:44;101059.41;;;37.04;33.23
33414;BME280;60055;41.884;12.534;2023-07-16T09:11:12;101057.72;;;36.97;33.05
33414;BME280;60055;41.884;12.534;2023-07-16T09:13:46;101050.91;;;36.99;33.36
33414;BME280;60055;41.884;12.534;2023-07-16T09:16:12;101050.91;;;36.55;34.20
33414;BME280;60055;41.884;12.534;2023-07-16T09:18:39;101057.38;;;36.80;33.15
33414;BME280;60055;41.884;12.534;2023-07-16T09:21:05;101052.41;;;37.02;32.93
33414;BME280;60055;41.884;12.534;2023-07-16T09:23:32;101053.00;;;37.10;33.02
33414;BME280;60055;41.884;12.534;2023-07-16T09:25:58;101051.97;;;36.41;35.31
33414;BME280;60055;41.884;12.534;2023-07-16T09:28:23;101047.38;;;35.95;35.49
33414;BME280;60055;41.884;12.534;2023-07-16T09:30:50;101055.63;;;36.08;35.20
33414;BME280;60055;41.884;12.534;2023-07-16T09:33:18;101051.53;;;36.50;34.31
33414;BME280;60055;41.884;12.534;2023-07-16T09:35:50;101068.38;;;36.80;33.98
33414;BME280;60055;41.884;12.534;2023-07-16T09:38:17;101057.84;;;36.51;34.25
33414;BME280;60055;41.884;12.534;2023-07-16T09:40:43;101062.94;;;37.18;33.02
33414;BME280;60055;41.884;12.534;2023-07-16T09:43:09;101057.94;;;37.33;33.17
33414;BME280;60055;41.884;12.534;2023-07-16T09:45:36;101057.28;;;37.38;33.31
33414;BME280;60055;41.884;12.534;2023-07-16T09:48:03;101066.25;;;37.64;33.06
33414;BME280;60055;41.884;12.534;2023-07-16T09:50:32;101062.63;;;37.32;33.84
33414;BME280;60055;41.884;12.534;2023-07-16T09:52:59;101061.91;;;37.50;33.48
33414;BME280;60055;41.884;12.534;2023-07-16T09:55:25;101059.59;;;37.47;33.37
33414;BME280;60055;41.884;12.534;2023-07-16T09:57:55;101052.69;;;36.87;33.88
33414;BME280;60055;41.884;12.534;2023-07-16T10:00:22;101054.88;;;37.16;33.85
33414;BME280;60055;41.884;12.534;2023-07-16T10:02:49;101050.25;;;37.48;33.24
33414;BME280;60055;41.884;12.534;2023-07-16T10:05:17;101050.03;;;37.50;33.49
33414;BME280;60055;41.884;12.534;2023-07-16T10:07:50;101056.59;;;37.42;32.47
33414;BME280;60055;41.884;12.534;2023-07-16T10:10:16;101048.31;;;37.49;32.38
33414;BME280;60055;41.884;12.534;2023-07-16T10:12:43;101046.59;;;37.79;31.04
33414;BME280;60055;41.884;12.534;2023-07-16T10:15:25;101046.38;;;37.56;30.89
33414;BME280;60055;41.884;12.534;2023-07-16T10:17:51;101045.38;;;37.44;30.35
33414;BME280;60055;41.884;12.534;2023-07-16T10:20:16;101033.00;;;37.84;27.91
33414;BME280;60055;41.884;12.534;2023-07-16T10:22:46;101033.13;;;37.89;27.17
33414;BME280;60055;41.884;12.534;2023-07-16T10:27:44;101046.72;;;37.66;27.17
33414;BME280;60055;41.884;12.534;2023-07-16T10:30:10;101047.00;;;37.58;28.16
33414;BME280;60055;41.884;12.534;2023-07-16T10:32:36;101052.47;;;37.64;28.73
33414;BME280;60055;41.884;12.534;2023-07-16T10:35:04;101044.38;;;37.38;29.61
33414;BME280;60055;41.884;12.534;2023-07-16T10:37:29;101037.84;;;37.89;28.75
33414;BME280;60055;41.884;12.534;2023-07-16T10:39:57;101033.28;;;37.51;28.99
33414;BME280;60055;41.884;12.534;2023-07-16T10:42:24;101032.81;;;37.54;28.82
33414;BME280;60055;41.884;12.534;2023-07-16T10:45:11;101024.88;;;37.89;27.97
33414;BME280;60055;41.884;12.534;2023-07-16T10:47:39;101023.19;;;37.88;28.07
33414;BME280;60055;41.884;12.534;2023-07-16T10:50:06;101019.03;;;37.79;27.88
33414;BME280;60055;41.884;12.534;2023-07-16T10:52:33;101021.25;;;37.95;27.71
33414;BME280;60055;41.884;12.534;2023-07-16T10:54:59;101010.38;;;38.00;27.78
33414;BME280;60055;41.884;12.534;2023-07-16T10:57:25;101013.09;;;37.82;28.10
33414;BME280;60055;41.884;12.534;2023-07-16T10:59:51;101022.19;;;38.07;27.97
33414;BME280;60055;41.884;12.534;2023-07-16T11:02:17;101018.50;;;38.13;27.07
33414;BME280;60055;41.884;12.534;2023-07-16T11:04:44;101022.81;;;38.27;26.38
33414;BME280;60055;41.884;12.534;2023-07-16T11:07:11;101018.81;;;38.05;28.76
33414;BME280;60055;41.884;12.534;2023-07-16T11:09:48;101023.28;;;38.24;29.37
33414;BME280;60055;41.884;12.534;2023-07-16T11:12:15;101023.72;;;37.54;35.89
33414;BME280;60055;41.884;12.534;2023-07-16T11:14:49;101021.00;;;36.65;39.99
33414;BME280;60055;41.884;12.534;2023-07-16T11:17:15;101019.84;;;36.85;39.23
33414;BME280;60055;41.884;12.534;2023-07-16T11:19:45;101026.72;;;37.14;38.36
33414;BME280;60055;41.884;12.534;2023-07-16T11:22:11;101027.94;;;36.80;39.47
33414;BME280;60055;41.884;12.534;2023-07-16T11:27:03;101029.47;;;36.70;40.74
33414;BME280;60055;41.884;12.534;2023-07-16T11:29:34;101035.41;;;36.67;40.61
33414;BME280;60055;41.884;12.534;2023-07-16T11:32:01;101039.78;;;36.81;40.48
33414;BME280;60055;41.884;12.534;2023-07-16T11:34:26;101035.38;;;36.73;40.84
33414;BME280;60055;41.884;12.534;2023-07-16T11:36:52;101023.59;;;36.47;41.46
33414;BME280;60055;41.884;12.534;2023-07-16T11:39:17;101037.59;;;36.32;41.92
33414;BME280;60055;41.884;12.534;2023-07-16T11:41:54;101035.03;;;36.37;41.63
33414;BME280;60055;41.884;12.534;2023-07-16T11:44:19;101037.63;;;36.25;41.42
33414;BME280;60055;41.884;12.534;2023-07-16T11:46:46;101034.47;;;36.22;42.01
33414;BME280;60055;41.884;12.534;2023-07-16T11:49:12;101028.53;;;36.25;42.06
33414;BME280;60055;41.884;12.534;2023-07-16T11:51:37;101029.28;;;36.52;40.87
33414;BME280;60055;41.884;12.534;2023-07-16T11:54:02;101032.19;;;36.76;40.54
33414;BME280;60055;41.884;12.534;2023-07-16T11:56:28;101029.13;;;36.40;41.00
33414;BME280;60055;41.884;12.534;2023-07-16T11:58:53;101024.03;;;36.37;41.31
33414;BME280;60055;41.884;12.534;2023-07-16T12:01:19;101030.44;;;36.18;42.01
33414;BME280;60055;41.884;12.534;2023-07-16T12:03:44;101022.81;;;36.26;41.60
33414;BME280;60055;41.884;12.534;2023-07-16T12:06:09;101031.47;;;36.23;41.33
33414;BME280;60055;41.884;12.534;2023-07-16T12:08:35;101032.91;;;36.59;40.32
33414;BME280;60055;41.884;12.534;2023-07-16T12:11:00;101022.38;;;36.29;41.00
33414;BME280;60055;41.884;12.534;2023-07-16T12:13:26;101013.09;;;36.11;41.64
33414;BME280;60055;41.884;12.534;2023-07-16T12:15:51;101017.09;;;36.21;41.37
33414;BME280;60055;41.884;12.534;2023-07-16T12:18:17;101026.63;;;36.25;40.81
33414;BME280;60055;41.884;12.534;2023-07-16T12:20:42;101019.41;;;36.31;40.55
33414;BME280;60055;41.884;12.534;2023-07-16T12:23:09;101027.72;;;36.82;39.69
33414;BME280;60055;41.884;12.534;2023-07-16T12:25:34;101014.72;;;36.96;38.65
33414;BME280;60055;41.884;12.534;2023-07-16T12:28:00;101013.50;;;36.27;40.83
33414;BME280;60055;41.884;12.534;2023-07-16T12:30:27;101027.34;;;36.72;39.01
33414;BME280;60055;41.884;12.534;2023-07-16T12:32:52;101027.59;;;37.08;38.08
33414;BME280;60055;41.884;12.534;2023-07-16T12:35:17;101026.69;;;37.21;37.57
33414;BME280;60055;41.884;12.534;2023-07-16T12:37:43;101030.19;;;37.03;38.05
33414;BME280;60055;41.884;12.534;2023-07-16T12:40:08;101026.78;;;37.01;38.38
33414;BME280;60055;41.884;12.534;2023-07-16T12:42:34;101023.78;;;37.72;36.16
33414;BME280;60055;41.884;12.534;2023-07-16T12:45:01;101024.41;;;37.99;35.30
33414;BME280;60055;41.884;12.534;2023-07-16T12:47:26;101017.16;;;38.22;35.36
33414;BME280;60055;41.884;12.534;2023-07-16T12:49:52;101016.38;;;38.33;34.19